Time;durP1;ratioP1;P1;durP2;ratioP2;P2;SDS_P1;SDS_P2;PMS_P1;PMS_P2;Temp;Humidity;BMP_temperature;BMP_pressure;BME280_temperature;BME280_humidity;BME280_pressure;Samples;Min_cycle;Max_cycle;Signal;HPM_P1;HPM_P2
2022/03/22 00:00:34;;;;;;;;;;;4.00;93.60;;;3.30;72.99;98581.03;5076154;28;19934;-44
2022/03/22 00:03:00;;;;;;;;;;;3.90;93.90;;;3.22;72.71;98576.59;5079588;28;19916;-43
2022/03/22 00:05:25;;;;;;;;;;;3.90;93.90;;;3.20;72.12;98567.88;5082021;28;19916;-43
2022/03/22 00:07:54;;;;;;;;;;;3.90;93.80;;;3.27;70.71;98566.22;5085406;28;19924;-44
2022/03/22 00:10:19;;;;;;;;;;;3.90;93.40;;;3.25;70.87;98561.00;5086056;28;20288;-37
2022/03/22 00:12:45;;;;;;;;;;;3.90;93.50;;;3.27;70.45;98565.34;5062044;28;19916;-45
2022/03/22 00:15:11;;;;;;;;;;;3.90;93.30;;;3.29;70.63;98561.91;5083777;28;19927;-41
2022/03/22 00:17:37;;;;;;;;;;;3.90;93.40;;;3.31;68.34;98567.13;5080460;28;19916;-43
2022/03/22 00:20:10;;;;;;;;;;;3.90;92.80;;;3.37;67.80;98560.22;5082056;28;20488;-43
2022/03/22 00:22:39;;;;;;;;;;;3.90;92.60;;;3.38;67.37;98558.53;5083818;28;19916;-44
2022/03/22 00:25:09;;;;;;;;;;;4.00;92.50;;;3.34;66.73;98560.22;5083357;28;19924;-41
2022/03/22 00:30:28;;;;;;;;;;;3.90;92.90;;;3.34;68.19;98561.94;5082542;28;20044;-40
2022/03/22 00:32:56;;;;;;;;;;;3.90;92.70;;;3.27;68.79;98554.91;5082990;28;19920;-43
2022/03/22 00:35:27;;;;;;;;;;;3.90;93.00;;;3.24;69.15;98556.63;5081473;28;20268;-42
2022/03/22 00:37:54;;;;;;;;;;;3.90;93.00;;;3.22;68.78;98558.34;5084814;28;20003;-45
2022/03/22 00:40:21;;;;;;;;;;;3.90;92.90;;;3.20;67.72;98560.06;5079720;28;19986;-43
2022/03/22 00:42:47;;;;;;;;;;;3.90;92.60;;;3.20;67.75;98560.06;5082993;28;20496;-43
2022/03/22 00:45:17;;;;;;;;;;;3.90;92.60;;;3.20;67.09;98557.47;5084403;28;19964;-43
2022/03/22 00:47:46;;;;;;;;;;;3.90;92.30;;;3.23;66.83;98561.81;5080272;28;20503;-42
2022/03/22 00:50:17;;;;;;;;;;;3.90;92.30;;;3.23;67.59;98556.59;5081606;28;19959;-43
2022/03/22 00:52:43;;;;;;;;;;;3.90;92.70;;;3.21;64.38;98546.19;5080386;28;20300;-43
2022/03/22 00:55:10;;;;;;;;;;;3.90;91.60;;;3.26;64.23;98556.66;5058819;28;19924;-43
2022/03/22 00:57:35;;;;;;;;;;;3.90;91.50;;;3.23;62.24;98546.16;5085072;28;19916;-41
2022/03/22 01:00:07;;;;;;;;;;;3.90;90.80;;;3.30;63.05;98550.59;5081794;28;19916;-45
2022/03/22 01:02:36;;;;;;;;;;;3.90;91.00;;;3.23;63.36;98547.06;5081606;28;19923;-43
2022/03/22 01:05:07;;;;;;;;;;;3.90;91.30;;;3.25;62.84;98549.69;5081809;28;20057;-43
2022/03/22 01:07:34;;;;;;;;;;;3.90;91.00;;;3.20;62.63;98531.38;5081582;28;19982;-41
2022/03/22 01:10:01;;;;;;;;;;;3.90;90.90;;;3.22;62.73;98536.63;5061095;28;20513;-41
2022/03/22 01:12:27;;;;;;;;;;;3.90;90.90;;;3.24;61.52;98542.72;5081259;28;20356;-44
2022/03/22 01:14:52;;;;;;;;;;;3.90;90.60;;;3.32;60.54;98548.91;5081936;28;19930;-45
2022/03/22 01:17:19;;;;;;;;;;;3.90;90.30;;;3.36;59.72;98545.47;5084688;28;19923;-43
2022/03/22 01:19:46;;;;;;;;;;;4.00;90.00;;;3.51;58.26;98538.66;5080878;28;19924;-43
2022/03/22 01:22:11;;;;;;;;;;;4.10;89.00;;;3.59;57.78;98543.06;5084223;28;19916;-45
2022/03/22 01:24:37;;;;;;;;;;;4.20;88.60;;;3.59;57.95;98540.47;5071831;28;20408;-46
2022/03/22 01:27:03;;;;;;;;;;;4.20;88.50;;;3.61;58.02;98536.13;5079658;28;19920;-44
2022/03/22 01:29:28;;;;;;;;;;;4.20;88.80;;;3.59;59.41;98540.47;5080119;28;19920;-42
2022/03/22 01:31:55;;;;;;;;;;;4.20;89.70;;;3.49;61.24;98535.16;5075224;28;19927;-43
2022/03/22 01:34:21;;;;;;;;;;;4.10;90.50;;;3.42;61.00;98539.44;5081196;28;19916;-42
2022/03/22 01:36:47;;;;;;;;;;;4.10;90.60;;;3.41;59.60;98532.44;5063006;28;19924;-42
2022/03/22 01:39:13;;;;;;;;;;;4.00;90.00;;;3.37;58.63;98530.69;5065973;28;19924;-40
2022/03/22 01:41:38;;;;;;;;;;;4.00;89.10;;;3.31;59.13;98535.84;5079838;28;20386;-41
2022/03/22 01:44:04;;;;;;;;;;;3.90;89.30;;;3.23;59.85;98527.91;5083492;28;19923;-44
2022/03/22 01:46:32;;;;;;;;;;;3.90;90.00;;;3.20;62.64;98518.34;5082517;28;20420;-42
2022/03/22 01:48:58;;;;;;;;;;;3.80;91.00;;;3.15;64.70;98527.84;5067749;28;20412;-42
2022/03/22 01:51:24;;;;;;;;;;;3.80;91.80;;;3.08;64.22;98525.16;5062963;28;19920;-44
2022/03/22 01:53:50;;;;;;;;;;;3.70;91.60;;;3.00;64.67;98525.97;5080151;28;20205;-43
2022/03/22 01:56:16;;;;;;;;;;;3.70;91.60;;;2.96;67.92;98523.28;5079072;28;20366;-40
2022/03/22 01:58:42;;;;;;;;;;;3.60;92.80;;;2.82;69.35;98516.19;5079299;28;20041;-42
2022/03/22 02:06:39;;;;;;;;;;;3.40;94.30;;;2.63;71.81;98519.44;5081407;28;19923;-38
2022/03/22 02:09:04;;;;;;;;;;;3.30;94.30;;;2.59;73.15;98513.31;5079036;28;20355;-38
2022/03/22 02:11:31;;;;;;;;;;;3.30;94.70;;;2.54;74.04;98516.72;5079979;28;19926;-40
2022/03/22 02:13:57;;;;;;;;;;;3.20;95.20;;;2.47;74.15;98521.81;5080940;28;20478;-41
2022/03/22 02:16:22;;;;;;;;;;;3.20;95.20;;;2.41;74.81;98513.06;5079078;28;20228;-40
2022/03/22 02:18:50;;;;;;;;;;;3.10;95.50;;;2.35;75.44;98503.47;5080914;28;19920;-44
2022/03/22 02:21:18;;;;;;;;;;;3.00;95.70;;;2.29;76.71;98514.63;5079415;28;19974;-42
2022/03/22 02:23:55;;;;;;;;;;;3.00;96.20;;;2.22;77.59;98511.94;5076438;28;19916;-42
2022/03/22 02:26:22;;;;;;;;;;;2.90;96.50;;;2.17;77.81;98509.28;5080860;28;19943;-40
2022/03/22 02:28:53;;;;;;;;;;;2.90;96.70;;;2.13;78.04;98517.88;5074065;28;19928;-43
2022/03/22 02:31:28;;;;;;;;;;;2.80;96.90;;;2.12;77.71;98516.16;5079214;28;19924;-43
2022/03/22 02:33:54;;;;;;;;;;;2.80;96.90;;;2.10;78.25;98512.66;5079376;28;19946;-43
2022/03/22 02:36:20;;;;;;;;;;;2.70;97.10;;;2.04;79.01;98502.13;5075440;28;20645;-41
2022/03/22 02:38:45;;;;;;;;;;;2.70;97.50;;;2.02;79.44;98504.72;5080327;28;19924;-44
2022/03/22 02:41:16;;;;;;;;;;;2.70;97.80;;;1.99;80.60;98499.50;5080316;28;19924;-40
2022/03/22 02:43:42;;;;;;;;;;;2.60;98.30;;;1.95;80.65;98502.88;5076915;28;19915;-41
2022/03/22 02:46:08;;;;;;;;;;;2.60;98.40;;;1.96;80.64;98516.78;5075753;28;20061;-44
2022/03/22 02:48:36;;;;;;;;;;;2.60;98.60;;;1.93;79.69;98511.53;5081718;28;20010;-44
2022/03/22 02:51:03;;;;;;;;;;;2.60;98.30;;;1.90;80.06;98512.34;5082334;28;20335;-42
2022/03/22 02:53:28;;;;;;;;;;;2.60;98.50;;;1.90;80.04;98514.94;5080702;28;19956;-44
2022/03/22 02:55:54;;;;;;;;;;;2.50;98.60;;;1.88;80.05;98508.84;5080414;28;20024;-41
2022/03/22 02:58:19;;;;;;;;;;;2.60;98.70;;;1.86;80.26;98513.16;5082752;28;19916;-40
2022/03/22 03:00:45;;;;;;;;;;;2.50;98.80;;;1.85;80.86;98508.81;5078520;28;20376;-40
2022/03/22 03:03:11;;;;;;;;;;;2.50;99.10;;;1.82;81.48;98517.44;5079782;28;20006;-43
2022/03/22 03:05:37;;;;;;;;;;;2.50;99.50;;;1.79;82.13;98512.16;5076662;28;20376;-42
2022/03/22 03:08:03;;;;;;;;;;;2.50;99.80;;;1.75;81.16;98525.97;5076435;28;20407;-44
2022/03/22 03:10:29;;;;;;;;;;;2.40;99.50;;;1.72;81.96;98512.91;5076761;28;19916;-38
2022/03/22 03:12:59;;;;;;;;;;;2.40;99.90;;;1.68;82.19;98511.13;5072073;28;19935;-45
2022/03/22 03:15:24;;;;;;;;;;;2.40;99.90;;;1.62;81.70;98506.72;5078802;28;19930;-43
2022/03/22 03:17:50;;;;;;;;;;;2.40;99.90;;;1.60;82.30;98508.41;5079144;28;19920;-42
2022/03/22 03:20:16;;;;;;;;;;;2.30;99.90;;;1.58;82.78;98507.50;5078144;28;20427;-42
2022/03/22 03:22:41;;;;;;;;;;;2.30;99.90;;;1.56;83.48;98511.78;5079612;28;19970;-45
2022/03/22 03:25:08;;;;;;;;;;;2.30;99.90;;;1.55;83.67;98509.19;5081255;28;19920;-43
2022/03/22 03:27:34;;;;;;;;;;;2.30;99.90;;;1.49;84.76;98517.72;5074841;28;20035;-40
2022/03/22 03:30:03;;;;;;;;;;;2.20;99.90;;;1.47;85.64;98509.03;5079532;28;19979;-43
2022/03/22 03:32:28;;;;;;;;;;;2.20;99.90;;;1.48;85.76;98524.66;5076454;28;20448;-43
2022/03/22 03:34:54;;;;;;;;;;;2.20;99.90;;;1.46;86.04;98522.91;5080261;28;19924;-44
2022/03/22 03:37:23;;;;;;;;;;;2.20;99.90;;;1.45;86.82;98523.75;5059188;28;20018;-41
2022/03/22 03:39:50;;;;;;;;;;;2.20;99.90;;;1.41;87.31;98527.16;5076504;28;19970;-40
2022/03/22 03:42:16;;;;;;;;;;;2.20;99.90;;;1.38;87.88;98514.09;5076472;28;20006;-44
2022/03/22 03:47:26;;;;;;;;;;;2.10;99.90;;;1.33;88.43;98524.41;5077660;28;19926;-44
2022/03/22 03:49:56;;;;;;;;;;;2.00;99.90;;;1.30;88.24;98520.03;5073767;28;19924;-43
2022/03/22 03:52:23;;;;;;;;;;;2.00;99.90;;;1.29;88.00;98526.09;5071815;28;19931;-43
2022/03/22 03:54:50;;;;;;;;;;;2.00;99.90;;;1.27;87.31;98530.34;5077664;28;19947;-45
2022/03/22 03:57:16;;;;;;;;;;;2.00;99.90;;;1.28;86.08;98533.84;5076055;28;20289;-42
2022/03/22 03:59:42;;;;;;;;;;;2.00;99.90;;;1.24;84.57;98522.53;5074087;28;19923;-42
2022/03/22 04:02:09;;;;;;;;;;;2.00;99.90;;;1.32;83.72;98528.72;5080972;28;19923;-42
2022/03/22 04:04:35;;;;;;;;;;;2.00;99.90;;;1.35;82.78;98525.31;5078640;28;19924;-42
2022/03/22 04:07:01;;;;;;;;;;;2.10;99.90;;;1.43;81.63;98523.72;5078644;28;20730;-42
2022/03/22 04:09:27;;;;;;;;;;;2.20;99.90;;;1.51;81.33;98526.47;5079622;28;19924;-42
2022/03/22 04:11:53;;;;;;;;;;;2.20;99.90;;;1.46;81.55;98525.50;5078694;28;19927;-44
2022/03/22 04:14:19;;;;;;;;;;;2.20;99.90;;;1.45;81.49;98518.53;5076746;28;20308;-44
2022/03/22 04:16:46;;;;;;;;;;;2.10;99.90;;;1.38;81.22;98527.09;5075715;28;19931;-43
2022/03/22 04:19:12;;;;;;;;;;;2.10;99.90;;;1.38;81.35;98530.53;5078119;28;19926;-41
2022/03/22 04:21:39;;;;;;;;;;;2.10;99.90;;;1.32;80.46;98526.13;5074190;28;19965;-42
2022/03/22 04:24:07;;;;;;;;;;;2.10;99.90;;;1.37;79.91;98527.94;5077338;28;19924;-43
2022/03/22 04:26:34;;;;;;;;;;;2.10;99.90;;;1.35;80.98;98527.91;5077575;28;20014;-38
2022/03/22 04:34:29;;;;;;;;;;;2.10;99.90;;;1.36;80.34;98531.38;5078146;28;19942;-44
2022/03/22 04:36:57;;;;;;;;;;;2.00;99.90;;;1.36;79.21;98534.84;5077715;28;20629;-44
2022/03/22 04:39:27;;;;;;;;;;;2.10;99.90;;;1.40;78.59;98535.78;5076631;28;19930;-43
2022/03/22 04:41:53;;;;;;;;;;;2.10;99.90;;;1.39;79.33;98529.72;5077351;28;20205;-44
2022/03/22 04:44:19;;;;;;;;;;;2.10;99.90;;;1.30;80.89;98533.03;5077242;28;20387;-43
2022/03/22 04:46:45;;;;;;;;;;;2.10;99.90;;;1.28;81.34;98542.50;5076474;28;19951;-43
2022/03/22 04:49:11;;;;;;;;;;;2.00;99.90;;;1.20;81.37;98538.88;5077990;28;19920;-44
2022/03/22 04:57:05;;;;;;;;;;;1.80;99.90;;;1.04;83.30;98544.66;5078885;28;20641;-43
2022/03/22 04:59:30;;;;;;;;;;;1.80;99.90;;;0.98;83.42;98554.94;5082658;28;20011;-44
2022/03/22 05:01:57;;;;;;;;;;;1.70;99.90;;;0.97;83.29;98553.16;5081687;28;19924;-37
2022/03/22 05:04:23;;;;;;;;;;;1.70;99.90;;;0.90;83.50;98549.59;5084829;28;19999;-42
2022/03/22 05:06:48;;;;;;;;;;;1.60;99.90;;;0.82;84.53;98554.63;5079127;28;20007;-42
2022/03/22 05:09:14;;;;;;;;;;;1.60;99.90;;;0.84;84.97;98562.44;5081145;28;20054;-43
2022/03/22 05:11:39;;;;;;;;;;;1.60;99.90;;;0.78;85.93;98562.34;5076842;28;20011;-42
2022/03/22 05:14:05;;;;;;;;;;;1.50;99.90;;;0.77;85.93;98561.44;5078816;28;19920;-40
2022/03/22 05:16:31;;;;;;;;;;;1.50;99.90;;;0.78;86.79;98570.13;5081205;28;19955;-41
2022/03/22 05:18:57;;;;;;;;;;;1.50;99.90;;;0.78;87.54;98564.94;5078508;28;20016;-42
2022/03/22 05:21:24;;;;;;;;;;;1.50;99.90;;;0.75;88.41;98568.31;5081670;28;20026;-45
2022/03/22 05:23:50;;;;;;;;;;;1.50;99.90;;;0.75;88.68;98568.31;5078956;28;20261;-37
2022/03/22 05:26:16;;;;;;;;;;;1.50;99.90;;;0.73;89.27;98559.63;5081025;28;19924;-41
2022/03/22 05:28:43;;;;;;;;;;;1.50;99.90;;;0.76;88.75;98567.50;5078857;28;20415;-42
2022/03/22 05:31:10;;;;;;;;;;;1.50;99.90;;;0.75;88.46;98571.81;5080848;28;20069;-43
2022/03/22 05:33:36;;;;;;;;;;;1.50;99.90;;;0.72;89.72;98573.47;5079103;28;19920;-44
2022/03/22 05:36:03;;;;;;;;;;;1.50;99.90;;;0.72;89.83;98574.34;5082678;28;19923;-45
2022/03/22 05:38:29;;;;;;;;;;;1.50;99.90;;;0.75;89.97;98584.81;5079876;28;19932;-43
2022/03/22 05:40:55;;;;;;;;;;;1.50;99.90;;;0.79;89.96;98584.84;5076192;28;19924;-41
2022/03/22 05:43:21;;;;;;;;;;;1.50;99.90;;;0.80;90.46;98582.28;5071538;28;20423;-41
2022/03/22 05:45:48;;;;;;;;;;;1.50;99.90;;;0.86;90.37;98577.22;5062171;28;20221;-43
2022/03/22 05:48:17;;;;;;;;;;;1.60;99.90;;;0.89;90.53;98581.59;5071677;28;19943;-43
2022/03/22 05:50:43;;;;;;;;;;;1.60;99.90;;;0.92;90.46;98582.53;5074261;28;20323;-42
2022/03/22 05:53:12;;;;;;;;;;;1.70;99.90;;;0.97;89.82;98579.16;5076336;28;19920;-44
2022/03/22 05:55:37;;;;;;;;;;;1.70;99.90;;;1.04;89.69;98579.31;5081283;28;19917;-42
2022/03/22 05:58:04;;;;;;;;;;;1.80;99.90;;;1.06;89.30;98577.63;5084006;28;19923;-44
2022/03/22 06:00:30;;;;;;;;;;;1.90;99.90;;;1.14;89.02;98578.63;5074537;28;20014;-42
2022/03/22 06:02:55;;;;;;;;;;;1.90;99.90;;;1.21;89.21;98579.63;5076967;28;20039;-40
2022/03/22 06:05:21;;;;;;;;;;;2.00;99.90;;;1.30;88.90;98573.75;5077565;28;20298;-44
2022/03/22 06:07:47;;;;;;;;;;;2.00;99.90;;;1.38;88.98;98573.88;5078058;28;20265;-41
2022/03/22 06:10:13;;;;;;;;;;;2.10;99.90;;;1.44;88.57;98576.59;5078163;28;19928;-44
2022/03/22 06:12:51;;;;;;;;;;;2.20;99.90;;;1.52;87.59;98578.47;5055899;28;19919;-44
2022/03/22 06:15:22;;;;;;;;;;;2.20;99.90;;;1.61;86.91;98575.16;5074522;28;20430;-44
2022/03/22 06:17:50;;;;;;;;;;;2.30;99.90;;;1.70;86.34;98574.44;5080849;28;20316;-42
2022/03/22 06:20:17;;;;;;;;;;;2.40;99.90;;;1.78;86.25;98572.88;5074511;28;22937;-44
2022/03/22 06:22:45;;;;;;;;;;;2.50;99.90;;;1.86;86.51;98567.78;5075641;28;19958;-43
2022/03/22 06:25:12;;;;;;;;;;;2.60;99.90;;;1.88;85.73;98581.69;5079443;28;19924;-40
2022/03/22 06:27:38;;;;;;;;;;;2.60;99.90;;;2.00;84.07;98574.06;5078046;28;19968;-43
2022/03/22 06:30:05;;;;;;;;;;;2.70;99.90;;;1.97;83.30;98566.22;5081607;28;20384;-41
2022/03/22 06:32:31;;;;;;;;;;;2.80;99.90;;;2.15;82.72;98577.78;5079985;28;19922;-43
2022/03/22 06:34:57;;;;;;;;;;;2.90;99.90;;;2.26;81.89;98582.31;5079486;28;19962;-40
2022/03/22 06:37:23;;;;;;;;;;;3.00;99.90;;;2.37;81.49;98584.16;5077432;28;19967;-45
2022/03/22 06:39:48;;;;;;;;;;;3.10;99.90;;;2.43;81.64;98577.31;5077278;28;20376;-44
2022/03/22 06:42:14;;;;;;;;;;;3.20;99.90;;;2.54;81.20;98571.41;5074327;28;19981;-45
2022/03/22 06:44:40;;;;;;;;;;;3.30;99.90;;;2.60;81.02;98577.59;5071324;28;19924;-43
2022/03/22 06:47:06;;;;;;;;;;;3.30;99.90;;;2.71;80.82;98569.00;5078346;28;19931;-43
2022/03/22 06:49:32;;;;;;;;;;;3.40;99.90;;;2.80;80.86;98571.72;5080371;28;19924;-43
2022/03/22 06:51:57;;;;;;;;;;;3.50;99.90;;;2.89;80.06;98573.59;5071686;28;19924;-42
2022/03/22 06:54:23;;;;;;;;;;;3.60;99.90;;;2.97;79.43;98572.81;5069235;28;19951;-42
2022/03/22 06:56:48;;;;;;;;;;;3.70;99.90;;;3.06;78.13;98577.28;5072229;28;19966;-42
2022/03/22 06:59:14;;;;;;;;;;;3.80;99.90;;;3.18;77.84;98577.44;5075041;28;19946;-43
2022/03/22 07:01:40;;;;;;;;;;;3.90;99.90;;;3.20;76.67;98585.25;5070781;28;20403;-42
2022/03/22 07:04:05;;;;;;;;;;;4.00;99.90;;;3.32;76.25;98589.72;5075469;28;19916;-38
2022/03/22 07:06:31;;;;;;;;;;;4.10;99.90;;;3.42;74.86;98586.38;5075252;28;19935;-40
2022/03/22 07:08:57;;;;;;;;;;;4.20;99.90;;;3.56;73.91;98595.22;5076408;28;19967;-37
2022/03/22 07:14:07;;;;;;;;;;;4.30;99.90;;;3.82;70.20;98603.31;5076380;28;19978;-42
2022/03/22 07:16:32;;;;;;;;;;;4.50;99.90;;;3.88;70.22;98601.63;5075591;28;20154;-40
2022/03/22 07:18:58;;;;;;;;;;;4.60;99.90;;;3.93;70.24;98606.00;5074419;28;19968;-43
2022/03/22 07:21:24;;;;;;;;;;;4.60;99.90;;;4.00;69.08;98606.91;5074876;28;20350;-42
2022/03/22 07:23:49;;;;;;;;;;;4.70;99.90;;;4.05;68.85;98605.22;5073544;28;20018;-44
2022/03/22 07:26:16;;;;;;;;;;;4.80;99.90;;;4.09;68.48;98601.81;5075172;28;19973;-42
2022/03/22 07:28:42;;;;;;;;;;;4.80;99.90;;;4.20;67.02;98596.66;5073786;28;19925;-45
2022/03/22 07:31:07;;;;;;;;;;;4.90;99.50;;;4.12;66.72;98583.53;5054140;28;19924;-41
2022/03/22 07:33:33;;;;;;;;;;;5.00;99.50;;;4.34;66.04;98604.56;5064349;28;20539;-43
2022/03/22 07:35:59;;;;;;;;;;;5.00;99.00;;;4.42;64.95;98607.25;5071471;28;19963;-41
2022/03/22 07:38:24;;;;;;;;;;;5.10;98.70;;;4.47;64.09;98602.91;5073636;28;19920;-43
2022/03/22 07:40:50;;;;;;;;;;;5.10;98.10;;;4.55;63.51;98604.72;5072855;28;19970;-41
2022/03/22 07:43:16;;;;;;;;;;;5.30;97.80;;;4.66;63.26;98612.63;5069556;28;20473;-45
2022/03/22 07:45:41;;;;;;;;;;;5.30;97.70;;;4.72;63.33;98606.56;5072419;28;19949;-44
2022/03/22 07:48:07;;;;;;;;;;;5.40;97.70;;;4.79;63.15;98603.13;5075507;28;19967;-42
2022/03/22 07:53:17;;;;;;;;;;;5.50;97.30;;;4.97;60.23;98612.78;5075655;28;20827;-43
2022/03/22 07:55:43;;;;;;;;;;;5.60;96.30;;;4.98;60.58;98604.97;5075522;28;19924;-43
2022/03/22 07:58:09;;;;;;;;;;;5.70;96.50;;;5.02;60.55;98603.22;5071037;28;19916;-46
2022/03/22 08:00:37;;;;;;;;;;;5.70;96.30;;;5.12;60.64;98614.63;5079540;28;19923;-44
2022/03/22 08:03:04;;;;;;;;;;;5.80;96.40;;;5.21;59.89;98609.44;5070814;28;20389;-41
2022/03/22 08:05:31;;;;;;;;;;;5.90;96.10;;;5.28;59.64;98610.34;5072582;28;19930;-45
2022/03/22 08:07:59;;;;;;;;;;;6.00;96.00;;;5.34;59.46;98605.09;5071526;28;19970;-44
2022/03/22 08:10:26;;;;;;;;;;;6.00;95.80;;;5.45;59.35;98611.25;5078155;28;19920;-44
2022/03/22 08:12:52;;;;;;;;;;;6.10;95.70;;;5.51;59.41;98616.50;5076945;28;20196;-45
2022/03/22 08:15:17;;;;;;;;;;;6.20;95.70;;;5.64;58.70;98619.16;5071341;28;19923;-45
2022/03/22 08:17:44;;;;;;;;;;;6.30;95.40;;;5.69;58.29;98622.66;5072839;28;20342;-46
2022/03/22 08:20:10;;;;;;;;;;;6.40;95.20;;;5.81;57.12;98620.03;5067760;28;20006;-47
2022/03/22 08:25:58;;;;;;;;;;;6.60;94.40;;;6.13;56.20;98623.63;5072851;28;20404;-46
2022/03/22 08:28:24;;;;;;;;;;;6.70;94.20;;;6.21;56.07;98620.13;5080570;28;19927;-42
2022/03/22 08:30:50;;;;;;;;;;;6.80;94.00;;;6.26;55.95;98615.78;5074553;28;20216;-45
2022/03/22 08:33:17;;;;;;;;;;;6.90;93.90;;;6.37;54.99;98617.50;5081044;28;19978;-43
2022/03/22 08:35:45;;;;;;;;;;;7.00;93.50;;;6.52;55.27;98621.88;5078206;28;19924;-41
2022/03/22 08:38:12;;;;;;;;;;;7.10;93.60;;;6.64;55.08;98616.56;5079177;28;19970;-41
2022/03/22 08:40:39;;;;;;;;;;;7.20;93.50;;;6.83;54.26;98614.81;5078902;28;19924;-45
2022/03/22 08:43:07;;;;;;;;;;;7.40;93.20;;;6.91;54.26;98614.78;5075017;28;20538;-41
2022/03/22 08:45:34;;;;;;;;;;;7.50;93.00;;;7.02;53.87;98613.00;5076678;28;19962;-43
2022/03/22 08:48:02;;;;;;;;;;;7.60;92.80;;;7.15;53.81;98612.06;5060644;28;19920;-44
2022/03/22 08:50:28;;;;;;;;;;;7.70;92.60;;;7.29;53.51;98622.53;5079961;28;19916;-43
2022/03/22 08:52:56;;;;;;;;;;;7.80;92.60;;;7.43;52.69;98615.47;5077578;28;19927;-45
2022/03/22 08:55:23;;;;;;;;;;;7.90;92.30;;;7.50;52.54;98610.16;5079738;28;22877;-43
2022/03/22 08:57:49;;;;;;;;;;;8.10;92.00;;;7.67;52.74;98612.72;5078754;28;20009;-44
2022/03/22 09:00:16;;;;;;;;;;;8.20;92.10;;;7.80;52.78;98614.38;5072141;28;19969;-43
2022/03/22 09:02:45;;;;;;;;;;;8.30;92.20;;;7.98;52.47;98616.00;5074585;28;19919;-46
2022/03/22 09:07:58;;;;;;;;;;;8.60;91.20;;;8.12;51.37;98603.63;5077772;28;19947;-45
2022/03/22 09:10:25;;;;;;;;;;;8.70;91.20;;;8.22;50.70;98613.19;5075604;28;19966;-41
2022/03/22 09:12:51;;;;;;;;;;;8.70;90.90;;;8.27;51.01;98601.75;5072837;28;20432;-45
2022/03/22 09:15:18;;;;;;;;;;;8.80;90.90;;;8.37;50.81;98609.56;5078000;28;20312;-45
2022/03/22 09:17:44;;;;;;;;;;;8.90;90.80;;;8.52;50.00;98612.97;5076476;28;19923;-43
2022/03/22 09:20:13;;;;;;;;;;;9.00;90.60;;;8.61;49.79;98612.88;5075926;28;20661;-42
2022/03/22 09:22:43;;;;;;;;;;;9.10;90.20;;;8.74;49.41;98611.88;5075675;28;19923;-41
2022/03/22 09:25:09;;;;;;;;;;;9.20;89.70;;;8.82;48.22;98611.78;5055032;28;20575;-43
2022/03/22 09:27:36;;;;;;;;;;;9.30;88.80;;;8.84;48.18;98607.38;5079160;28;19915;-42
2022/03/22 09:30:03;;;;;;;;;;;9.30;87.80;;;8.79;48.16;98599.56;5074828;28;19943;-42
2022/03/22 09:32:28;;;;;;;;;;;9.40;87.40;;;8.93;47.81;98601.16;5078383;28;19985;-43
2022/03/22 09:34:54;;;;;;;;;;;9.40;86.00;;;8.94;46.63;98614.31;5078463;28;20415;-45
2022/03/22 09:37:19;;;;;;;;;;;9.50;85.50;;;9.17;46.49;98605.28;5077785;28;19951;-39
2022/03/22 09:39:48;;;;;;;;;;;9.60;84.40;;;9.22;45.59;98608.69;5079049;28;19928;-40
2022/03/22 09:42:13;;;;;;;;;;;9.70;83.90;;;9.23;45.54;98612.22;5078943;28;19924;-45
2022/03/22 09:44:39;;;;;;;;;;;9.80;83.20;;;9.26;45.93;98599.91;5059312;28;19954;-46
2022/03/22 09:47:05;;;;;;;;;;;9.70;83.70;;;9.38;46.62;98606.75;5075733;28;19916;-42
2022/03/22 09:49:31;;;;;;;;;;;9.90;84.30;;;9.55;46.90;98607.41;5060864;28;19968;-45
2022/03/22 09:51:57;;;;;;;;;;;9.90;85.10;;;9.63;47.19;98603.81;5075915;28;20385;-41
2022/03/22 09:54:23;;;;;;;;;;;10.10;85.40;;;9.78;46.28;98603.59;5071163;28;19978;-44
2022/03/22 09:56:50;;;;;;;;;;;10.20;84.40;;;9.84;45.31;98602.63;5077877;28;19922;-37
2022/03/22 09:59:17;;;;;;;;;;;10.30;82.10;;;9.92;45.76;98599.00;5076938;28;19924;-42
2022/03/22 10:01:44;;;;;;;;;;;10.30;83.40;;;9.99;45.61;98599.75;5073334;28;20716;-44
2022/03/22 10:04:13;;;;;;;;;;;10.40;82.80;;;10.04;45.91;98605.81;5076042;28;19924;-42
2022/03/22 10:07:02;;;;;;;;;;;10.40;83.10;;;10.11;45.64;98598.69;5073321;28;19948;-45
2022/03/22 10:09:29;;;;;;;;;;;10.50;83.40;;;10.09;44.86;98595.22;5081460;28;19942;-41
2022/03/22 10:11:55;;;;;;;;;;;10.50;80.90;;;10.10;44.70;98589.94;5073171;28;20085;-41
2022/03/22 10:14:32;;;;;;;;;;;10.60;81.10;;;10.19;43.97;98591.50;5056507;28;19922;-42
2022/03/22 10:16:57;;;;;;;;;;;10.60;80.10;;;10.31;43.74;98595.75;5079606;28;20319;-37
2022/03/22 10:19:24;;;;;;;;;;;10.70;79.60;;;10.27;43.35;98592.28;5080377;28;20312;-44
2022/03/22 10:21:51;;;;;;;;;;;10.80;78.60;;;10.53;42.16;98596.25;5072067;28;19928;-44
2022/03/22 10:24:17;;;;;;;;;;;10.80;77.50;;;10.45;41.98;98592.91;5074233;28;20392;-44
2022/03/22 10:32:39;;;;;;;;;;;11.10;73.40;;;11.00;40.46;98589.25;5015622;28;20127;-40
2022/03/22 10:35:14;;;;;;;;;;;11.20;73.90;;;11.20;39.01;98591.47;5030330;28;20304;-40
2022/03/22 10:37:45;;;;;;;;;;;11.40;71.70;;;11.18;39.72;98581.84;5024700;28;19925;-40
2022/03/22 10:40:25;;;;;;;;;;;11.60;72.00;;;11.16;40.01;98578.34;5029251;28;19931;-39
2022/03/22 10:42:52;;;;;;;;;;;11.60;72.20;;;11.14;39.87;98583.66;5032108;28;19968;-38
2022/03/22 10:45:18;;;;;;;;;;;11.60;72.00;;;11.14;39.08;98580.16;5034039;28;19983;-36
2022/03/22 10:47:44;;;;;;;;;;;11.60;70.50;;;11.34;37.95;98585.03;5035053;28;19929;-40
2022/03/22 10:50:10;;;;;;;;;;;11.60;69.20;;;11.21;38.36;98579.13;5035069;28;20345;-45
2022/03/22 10:52:50;;;;;;;;;;;11.60;68.80;;;11.32;38.37;98573.63;5039188;28;19930;-43
2022/03/22 10:55:21;;;;;;;;;;;11.70;69.00;;;11.28;38.21;98578.09;5032762;28;19951;-42
2022/03/22 10:57:52;;;;;;;;;;;11.70;68.60;;;11.35;38.41;98576.22;5036065;28;19969;-38
2022/03/22 11:00:18;;;;;;;;;;;11.70;68.50;;;11.41;38.10;98576.06;5035844;28;19979;-40
2022/03/22 11:02:47;;;;;;;;;;;11.80;67.80;;;11.46;38.32;98572.41;5038462;28;19924;-43
2022/03/22 11:05:14;;;;;;;;;;;11.80;68.20;;;11.74;37.92;98571.81;5036234;28;19959;-39
2022/03/22 11:07:40;;;;;;;;;;;12.00;67.90;;;11.98;37.00;98574.81;5030463;28;20389;-39
2022/03/22 11:10:06;;;;;;;;;;;12.20;66.60;;;12.13;36.14;98574.47;5018046;28;19925;-47
2022/03/22 11:12:33;;;;;;;;;;;12.40;64.70;;;12.12;35.48;98575.38;5027297;28;19935;-38
2022/03/22 11:14:59;;;;;;;;;;;12.50;64.30;;;11.98;35.71;98577.47;5030026;28;20065;-40
2022/03/22 11:17:27;;;;;;;;;;;12.40;62.90;;;11.93;36.58;98572.28;5016125;28;19916;-43
2022/03/22 11:19:55;;;;;;;;;;;12.40;64.40;;;12.07;36.27;98571.09;5027304;28;19995;-40
2022/03/22 11:22:22;;;;;;;;;;;12.40;64.00;;;12.17;35.77;98554.97;5017039;28;19966;-45
2022/03/22 11:24:48;;;;;;;;;;;12.50;63.40;;;12.26;35.05;98566.19;5036112;28;19925;-39
2022/03/22 11:27:13;;;;;;;;;;;12.60;62.20;;;12.23;35.42;98572.44;5030696;28;19927;-45
2022/03/22 11:29:40;;;;;;;;;;;12.70;62.00;;;12.11;34.60;98544.53;5032416;28;19939;-39
2022/03/22 11:34:56;;;;;;;;;;;12.60;62.00;;;12.09;35.24;98556.06;5034677;28;19997;-39
2022/03/22 11:37:33;;;;;;;;;;;12.60;61.80;;;12.19;35.04;98560.22;5034331;28;20051;-40
2022/03/22 11:42:54;;;;;;;;;;;12.60;62.10;;;12.49;36.41;98555.94;5032718;28;19923;-40
2022/03/22 11:45:19;;;;;;;;;;;12.70;63.50;;;12.57;36.45;98553.94;5035853;28;19924;-40
2022/03/22 11:47:49;;;;;;;;;;;12.90;63.50;;;12.52;35.69;98547.03;5031614;28;19930;-38
2022/03/22 11:50:18;;;;;;;;;;;12.90;62.80;;;12.55;35.92;98550.47;5034158;28;19921;-42
2022/03/22 11:52:45;;;;;;;;;;;12.90;62.80;;;12.54;36.12;98553.13;5035640;28;19916;-47
2022/03/22 11:55:12;;;;;;;;;;;12.90;62.90;;;12.53;38.15;98551.41;5032340;28;19977;-42
2022/03/22 11:57:51;;;;;;;;;;;12.90;65.80;;;12.51;37.15;98543.53;5032500;28;19921;-38
2022/03/22 12:00:21;;;;;;;;;;;12.90;64.30;;;12.52;37.50;98539.94;5028206;28;19960;-40
2022/03/22 12:02:53;;;;;;;;;;;13.00;64.60;;;12.72;36.99;98543.84;5035747;28;19921;-40
2022/03/22 12:05:20;;;;;;;;;;;13.10;64.00;;;12.63;37.08;98546.75;5023260;28;19970;-42
2022/03/22 12:07:47;;;;;;;;;;;13.00;64.30;;;12.57;37.61;98539.84;5035307;28;20425;-44
2022/03/22 12:10:14;;;;;;;;;;;13.00;65.00;;;12.72;37.39;98542.09;5038178;28;19960;-37
2022/03/22 12:12:43;;;;;;;;;;;13.10;64.90;;;12.76;36.13;98533.13;5030596;28;19936;-43
2022/03/22 12:15:11;;;;;;;;;;;13.20;62.60;;;12.84;35.92;98537.34;5039244;28;20396;-42